Time;durP1;ratioP1;P1;durP2;ratioP2;P2;SDS_P1;SDS_P2;PMS_P1;PMS_P2;Temp;Humidity;BMP_temperature;BMP_pressure;BME280_temperature;BME280_humidity;BME280_pressure;Samples;Min_cycle;Max_cycle;Signal;HPM_P1;HPM_P2
2021/11/05 00:00:21;;;;;;;50.97;14.10;;;;;;;7.06;79.45;100613.03;5030063;28;20599;-80
2021/11/05 00:02:47;;;;;;;59.80;14.50;;;;;;;7.63;79.54;100687.38;5035955;28;20044;-78
2021/11/05 00:05:13;;;;;;;60.03;13.45;;;;;;;7.62;79.50;100681.34;5054138;28;20599;-81
2021/11/05 00:07:42;;;;;;;48.08;14.15;;;;;;;7.71;79.92;100674.59;5046014;28;20203;-81
2021/11/05 00:10:10;;;;;;;74.60;14.82;;;;;;;7.75;79.35;100664.28;5033355;28;20087;-80
2021/11/05 00:12:36;;;;;;;57.47;13.63;;;;;;;7.71;79.64;100646.94;5035467;28;20057;-82
2021/11/05 00:15:02;;;;;;;78.28;15.00;;;;;;;7.66;79.48;100630.44;5046768;28;20033;-79
2021/11/05 00:17:29;;;;;;;66.93;15.25;;;;;;;7.74;79.09;100641.81;5047916;28;20044;-80
2021/11/05 00:19:55;;;;;;;46.50;14.23;;;;;;;7.83;79.76;100634.19;5033780;28;20043;-82
2021/11/05 00:22:20;;;;;;;56.15;14.90;;;;;;;7.82;79.59;100637.66;5034616;28;20044;-79
2021/11/05 00:24:47;;;;;;;45.58;14.80;;;;;;;7.95;79.89;100640.41;5036334;28;20040;-82
2021/11/05 00:27:13;;;;;;;47.47;13.95;;;;;;;8.08;79.43;100651.84;5021802;28;20040;-80
2021/11/05 00:29:41;;;;;;;51.85;15.27;;;;;;;8.03;79.46;100636.22;5039075;28;20037;-79
2021/11/05 00:32:07;;;;;;;54.55;15.00;;;;;;;7.98;79.23;100637.88;5053051;28;20052;-80
2021/11/05 00:34:33;;;;;;;48.08;15.27;;;;;;;7.71;79.11;100587.38;5062618;28;20041;-78
2021/11/05 00:36:59;;;;;;;49.58;16.45;;;;;;;7.77;79.71;100612.50;5067563;28;20040;-84
2021/11/05 00:39:25;;;;;;;46.72;15.50;;;;;;;7.56;80.31;100550.88;5023283;28;20037;-84
2021/11/05 00:41:51;;;;;;;44.53;15.85;;;;;;;8.13;79.66;100622.53;5016773;28;20503;-82
2021/11/05 00:44:18;;;;;;;49.03;16.30;;;;;;;8.13;80.05;100617.34;5035155;28;20037;-82
2021/11/05 00:46:44;;;;;;;52.15;17.52;;;;;;;8.21;79.46;100630.41;5048197;28;20564;-81
2021/11/05 00:49:10;;;;;;;40.78;16.10;;;;;;;8.30;79.98;100650.41;5032733;28;20159;-80
2021/11/05 00:51:36;;;;;;;44.90;16.08;;;;;;;8.22;79.97;100620.94;5053101;28;20040;-80
2021/11/05 00:54:02;;;;;;;44.35;17.17;;;;;;;8.24;79.54;100634.78;5033950;28;20064;-81
2021/11/05 00:56:27;;;;;;;43.97;16.90;;;;;;;8.36;80.28;100642.72;5020345;28;20056;-82
2021/11/05 00:58:53;;;;;;;48.00;17.85;;;;;;;8.40;79.74;100644.53;5021834;28;20052;-81
2021/11/05 01:01:19;;;;;;;46.38;17.00;;;;;;;8.40;79.62;100636.75;5022074;28;20045;-81
2021/11/05 01:03:45;;;;;;;43.42;15.70;;;;;;;8.45;80.01;100629.00;5051372;28;20480;-80
2021/11/05 01:06:13;;;;;;;47.88;17.35;;;;;;;8.49;80.11;100635.16;5031730;28;20037;-80
2021/11/05 01:08:39;;;;;;;47.80;15.95;;;;;;;8.44;79.80;100637.63;5053663;28;20044;-83
2021/11/05 01:11:04;;;;;;;45.70;16.05;;;;;;;8.28;79.82;100611.50;5048356;28;20064;-80
2021/11/05 01:13:30;;;;;;;53.15;16.05;;;;;;;8.17;79.78;100607.88;5033527;28;20535;-83
2021/11/05 01:15:56;;;;;;;40.45;16.27;;;;;;;8.33;80.44;100610.72;5028785;28;20041;-84
2021/11/05 01:18:22;;;;;;;49.78;18.30;;;;;;;8.46;79.55;100620.38;5030762;28;20041;-82
2021/11/05 01:20:48;;;;;;;48.75;17.67;;;;;;;8.52;80.19;100617.91;5050018;28;20055;-79
2021/11/05 01:23:14;;;;;;;39.92;15.40;;;;;;;8.56;80.02;100611.03;5047534;28;20431;-82
2021/11/05 01:25:40;;;;;;;44.88;15.52;;;;;;;8.50;79.70;100582.41;5028737;28;20035;-79
2021/11/05 01:28:05;;;;;;;40.33;15.23;;;;;;;8.41;80.09;100542.53;5052351;28;21310;-81
2021/11/05 01:30:33;;;;;;;54.20;15.90;;;;;;;8.66;79.75;100568.78;5020497;28;20147;-82
2021/11/05 01:33:06;;;;;;;44.25;15.50;;;;;;;8.62;79.82;100579.09;5018079;28;20041;-83
2021/11/05 01:35:33;;;;;;;47.08;15.63;;;;;;;8.62;79.74;100572.19;5020054;28;20106;-81
2021/11/05 01:38:00;;;;;;;45.10;15.80;;;;;;;8.24;79.98;100506.00;5050000;28;20087;-79
2021/11/05 01:40:26;;;;;;;40.08;13.98;;;;;;;8.56;80.10;100551.34;5029512;28;20036;-80
2021/11/05 01:42:52;;;;;;;44.38;15.82;;;;;;;8.59;80.39;100556.59;5046467;28;20036;-78
2021/11/05 01:45:19;;;;;;;43.17;14.73;;;;;;;8.53;79.51;100553.91;5047137;28;20530;-80
2021/11/05 01:47:44;;;;;;;43.85;15.23;;;;;;;8.72;80.49;100589.59;5035124;28;20047;-81
2021/11/05 01:50:11;;;;;;;40.60;15.45;;;;;;;8.51;80.22;100560.81;5014671;28;20033;-79
2021/11/05 01:52:39;;;;;;;40.78;14.80;;;;;;;8.56;80.53;100561.72;5049093;28;20637;-81
2021/11/05 01:55:06;;;;;;;37.25;14.90;;;;;;;8.64;80.07;100580.88;5050673;28;20041;-80
2021/11/05 01:57:32;;;;;;;46.05;16.17;;;;;;;8.69;80.52;100575.72;5018848;28;20099;-80
2021/11/05 01:59:58;;;;;;;44.40;16.95;;;;;;;8.76;80.02;100577.53;5028550;28;20056;-80
2021/11/05 02:02:24;;;;;;;40.80;16.55;;;;;;;8.78;80.59;100574.94;5054310;28;20037;-80
2021/11/05 02:04:50;;;;;;;41.58;15.48;;;;;;;8.80;80.41;100568.03;5033902;28;20508;-82
2021/11/05 02:07:16;;;;;;;46.33;14.90;;;;;;;8.72;79.83;100562.78;5052536;28;20048;-81
2021/11/05 02:09:43;;;;;;;45.50;16.42;;;;;;;8.69;80.53;100553.25;5017194;28;20037;-79
2021/11/05 02:12:09;;;;;;;44.20;16.33;;;;;;;8.82;80.00;100571.53;5017502;28;20044;-83
2021/11/05 02:14:38;;;;;;;43.13;15.82;;;;;;;8.83;80.14;100565.50;5046730;28;20068;-80
2021/11/05 02:17:04;;;;;;;46.80;15.90;;;;;;;8.82;80.66;100576.72;5018403;28;20040;-83
2021/11/05 02:19:32;;;;;;;39.90;15.52;;;;;;;8.86;80.41;100557.75;5033612;28;20063;-79
2021/11/05 02:22:01;;;;;;;44.45;16.25;;;;;;;8.82;80.24;100548.19;5029944;28;20036;-78
2021/11/05 02:24:29;;;;;;;40.67;15.18;;;;;;;8.99;80.63;100556.16;5048438;28;20098;-81
2021/11/05 02:27:15;;;;;;;42.22;14.88;;;;;;;9.05;79.90;100569.16;5017672;28;20044;-82
2021/11/05 02:29:41;;;;;;;46.55;15.73;;;;;;;9.00;80.23;100565.66;5016075;28;20466;-82
2021/11/05 02:32:08;;;;;;;50.45;16.27;;;;;;;8.83;79.98;100548.19;5049516;28;20076;-83
2021/11/05 02:34:34;;;;;;;44.33;15.50;;;;;;;8.80;80.28;100549.88;5045365;28;20087;-83
2021/11/05 02:37:08;;;;;;;53.42;16.33;;;;;;;8.82;80.60;100550.78;5047684;28;20041;-81
2021/11/05 02:39:35;;;;;;;42.55;15.77;;;;;;;8.89;80.50;100548.25;5047812;28;20033;-81
2021/11/05 02:42:01;;;;;;;48.72;16.10;;;;;;;8.90;80.35;100546.53;5034632;28;20041;-84
2021/11/05 02:44:37;;;;;;;46.30;15.90;;;;;;;8.91;80.41;100534.41;5050227;28;20036;-79
2021/11/05 02:47:25;;;;;;;48.97;15.68;;;;;;;8.76;80.00;100488.41;5030021;28;20449;-81
2021/11/05 02:49:54;;;;;;;46.40;15.43;;;;;;;8.82;80.04;100514.44;5064841;28;20037;-79
2021/11/05 02:52:21;;;;;;;41.58;15.35;;;;;;;8.74;80.94;100486.69;5065620;28;20037;-81
2021/11/05 02:54:47;;;;;;;42.05;15.13;;;;;;;8.91;80.46;100498.09;5045375;28;20041;-79
2021/11/05 02:57:13;;;;;;;39.10;14.73;;;;;;;9.07;81.23;100506.88;5059105;28;20079;-79
2021/11/05 02:59:40;;;;;;;46.97;16.42;;;;;;;9.06;80.19;100507.72;5054399;28;20040;-81
2021/11/05 03:02:07;;;;;;;43.92;15.38;;;;;;;8.99;80.60;100486.91;5019584;28;20066;-83
2021/11/05 03:04:33;;;;;;;38.00;15.43;;;;;;;9.06;80.63;100476.59;5047782;28;20098;-82
2021/11/05 03:07:05;;;;;;;41.30;16.00;;;;;;;9.19;80.49;100501.78;5032301;28;20036;-81
2021/11/05 03:09:37;;;;;;;44.22;16.13;;;;;;;9.20;80.57;100498.31;5030834;28;20037;-84
2021/11/05 03:12:03;;;;;;;46.13;17.55;;;;;;;9.13;80.77;100480.97;5049624;28;20507;-83
2021/11/05 03:14:29;;;;;;;44.95;17.70;;;;;;;9.01;80.61;100442.81;5031411;28;20510;-82
2021/11/05 03:16:56;;;;;;;49.30;17.90;;;;;;;8.86;80.87;100400.28;5032557;28;20041;-79
2021/11/05 03:19:22;;;;;;;56.13;22.50;;;;;;;9.43;80.95;100493.31;5048348;28;20041;-81
2021/11/05 03:21:50;;;;;;;49.22;19.25;;;;;;;9.41;80.40;100478.56;5031996;28;20039;-82
2021/11/05 03:24:18;;;;;;;47.17;18.95;;;;;;;9.41;80.62;100476.84;5033222;28;20246;-81
2021/11/05 03:26:45;;;;;;;43.88;17.52;;;;;;;9.28;80.95;100456.81;5002470;28;20032;-81
2021/11/05 03:29:10;;;;;;;47.60;16.45;;;;;;;9.34;80.61;100457.75;5031945;28;20045;-82
2021/11/05 03:31:37;;;;;;;44.60;17.60;;;;;;;9.51;80.59;100506.34;5022112;28;20504;-80
2021/11/05 03:34:03;;;;;;;47.95;17.23;;;;;;;9.51;81.14;100488.16;5028050;28;20048;-80
2021/11/05 03:36:29;;;;;;;45.00;18.10;;;;;;;9.52;80.99;100479.50;5025142;28;20037;-81
2021/11/05 03:38:54;;;;;;;49.38;18.80;;;;;;;9.57;80.48;100487.31;4998844;28;20863;-81
2021/11/05 03:41:22;;;;;;;48.78;17.75;;;;;;;9.54;80.69;100487.31;5008866;28;20544;-78
2021/11/05 03:43:48;;;;;;;48.38;17.92;;;;;;;9.60;80.52;100485.59;4998083;28;20182;-81
2021/11/05 03:46:14;;;;;;;41.78;16.63;;;;;;;9.61;80.52;100486.50;4997016;28;21125;-78
2021/11/05 03:48:40;;;;;;;53.88;20.35;;;;;;;9.52;80.82;100461.31;5034277;28;20188;-80
2021/11/05 03:51:07;;;;;;;50.55;22.08;;;;;;;9.60;80.65;100470.00;5017108;28;20069;-80
2021/11/05 03:53:35;;;;;;;49.25;18.73;;;;;;;9.62;81.13;100462.25;5016162;28;20098;-80
2021/11/05 03:56:02;;;;;;;45.00;17.45;;;;;;;9.52;80.51;100437.06;4999746;28;20049;-80
2021/11/05 03:58:28;;;;;;;49.42;17.73;;;;;;;9.64;80.95;100450.13;5012758;28;20025;-79
2021/11/05 04:00:54;;;;;;;45.15;18.33;;;;;;;9.74;80.76;100459.69;5024733;28;20333;-80
2021/11/05 04:03:21;;;;;;;55.58;22.80;;;;;;;9.74;80.60;100438.91;5041817;28;20048;-83
2021/11/05 04:05:47;;;;;;;58.13;22.95;;;;;;;9.69;80.68;100437.16;5005720;28;20048;-79
2021/11/05 04:08:15;;;;;;;53.13;20.35;;;;;;;9.86;80.91;100471.88;5042362;28;20033;-83
2021/11/05 04:10:42;;;;;;;51.80;19.15;;;;;;;9.87;80.72;100477.97;5016694;28;20049;-80
2021/11/05 04:13:07;;;;;;;50.80;19.23;;;;;;;9.76;80.75;100444.13;5024940;28;20045;-78
2021/11/05 04:15:34;;;;;;;45.88;19.10;;;;;;;9.81;80.76;100450.22;5037123;28;20057;-83
2021/11/05 04:17:59;;;;;;;50.10;18.30;;;;;;;9.88;80.53;100443.31;5014503;28;20057;-82
2021/11/05 04:20:25;;;;;;;51.38;19.15;;;;;;;9.76;80.74;100407.75;5000744;28;20045;-78
2021/11/05 04:22:52;;;;;;;42.80;20.17;;;;;;;10.00;80.74;100432.97;5016733;28;20045;-86
2021/11/05 04:25:18;;;;;;;44.88;19.30;;;;;;;9.78;80.41;100398.22;5001626;28;20045;-79
2021/11/05 04:27:44;;;;;;;48.88;18.58;;;;;;;9.93;80.25;100426.88;5024904;28;20045;-81
2021/11/05 04:30:13;;;;;;;46.08;18.55;;;;;;;10.03;80.51;100432.13;5041481;28;20044;-78
2021/11/05 04:32:40;;;;;;;41.15;17.60;;;;;;;9.93;80.03;100413.03;5034776;28;20064;-79
2021/11/05 04:35:07;;;;;;;43.83;17.95;;;;;;;10.00;80.22;100411.31;5045224;28;20053;-80
2021/11/05 04:37:33;;;;;;;44.13;18.17;;;;;;;9.78;80.44;100390.44;5022238;28;20041;-82
2021/11/05 04:39:58;;;;;;;46.25;19.08;;;;;;;9.85;80.43;100388.72;5049512;28;20588;-81
2021/11/05 04:42:24;;;;;;;43.22;17.88;;;;;;;10.04;80.84;100403.50;5051594;28;20045;-80
2021/11/05 04:44:50;;;;;;;44.38;18.38;;;;;;;10.00;80.16;100399.16;5053534;28;20061;-81
2021/11/05 04:47:16;;;;;;;42.97;19.13;;;;;;;9.86;80.70;100382.66;5055170;28;20033;-79
2021/11/05 04:49:42;;;;;;;44.35;17.90;;;;;;;10.02;80.35;100401.78;5053443;28;20045;-82
2021/11/05 04:52:08;;;;;;;46.15;19.60;;;;;;;10.02;80.03;100393.97;5055146;28;20458;-80
2021/11/05 04:54:35;;;;;;;42.95;18.13;;;;;;;10.02;80.29;100391.38;5050139;28;20037;-80
2021/11/05 04:57:01;;;;;;;45.75;17.90;;;;;;;10.06;80.20;100406.09;5054166;28;20508;-86
2021/11/05 04:59:29;;;;;;;42.08;18.77;;;;;;;9.87;80.21;100361.84;5057565;28;20094;-82
2021/11/05 05:01:54;;;;;;;45.47;18.85;;;;;;;10.00;80.41;100380.97;5039658;28;20083;-83
2021/11/05 05:04:20;;;;;;;40.58;18.35;;;;;;;10.13;80.20;100394.84;5031247;28;20420;-80
2021/11/05 05:06:46;;;;;;;58.97;25.40;;;;;;;10.11;80.09;100378.38;5059743;28;20032;-79
2021/11/05 05:09:12;;;;;;;58.40;24.52;;;;;;;10.03;79.87;100367.97;5069942;28;20033;-80
2021/11/05 05:11:40;;;;;;;47.10;20.52;;;;;;;10.14;79.80;100393.16;5015281;28;20519;-79
2021/11/05 05:14:06;;;;;;;56.50;23.88;;;;;;;10.13;80.46;100387.06;5052062;28;20048;-82
2021/11/05 05:16:32;;;;;;;57.92;26.20;;;;;;;10.21;80.17;100394.88;5038183;28;20041;-80
2021/11/05 05:18:57;;;;;;;47.72;20.10;;;;;;;10.20;80.04;100414.81;5050657;28;20068;-79
2021/11/05 05:21:23;;;;;;;44.63;20.55;;;;;;;10.24;80.30;100403.56;5039299;28;20131;-82
2021/11/05 05:23:49;;;;;;;42.55;18.23;;;;;;;10.18;79.81;100393.16;5038006;28;20495;-81
2021/11/05 05:26:14;;;;;;;44.40;19.50;;;;;;;10.05;79.91;100363.63;5047920;28;20044;-85
2021/11/05 05:28:40;;;;;;;44.08;19.27;;;;;;;10.07;79.63;100371.44;5051673;28;20056;-81
2021/11/05 05:31:07;;;;;;;43.90;19.50;;;;;;;10.01;79.63;100361.88;5055999;28;20063;-82
2021/11/05 05:33:37;;;;;;;42.47;20.08;;;;;;;10.24;79.56;100385.38;5042809;28;20036;-80
2021/11/05 05:36:07;;;;;;;46.20;20.13;;;;;;;10.10;79.50;100348.94;5027002;28;20044;-82
2021/11/05 05:38:33;;;;;;;42.28;20.00;;;;;;;10.27;79.26;100379.28;5052917;28;20042;-82
2021/11/05 05:40:59;;;;;;;42.78;19.60;;;;;;;10.05;79.61;100331.56;5049075;28;20036;-79
2021/11/05 05:43:25;;;;;;;45.38;20.10;;;;;;;10.18;79.29;100346.34;5041684;28;20112;-80
2021/11/05 05:45:51;;;;;;;50.67;21.70;;;;;;;10.29;79.27;100369.75;5054395;28;20380;-83
2021/11/05 05:48:17;;;;;;;44.28;19.48;;;;;;;10.17;79.23;100341.09;5041513;28;20419;-83
2021/11/05 05:50:43;;;;;;;42.25;19.98;;;;;;;10.32;79.27;100374.97;5036108;28;20103;-80
2021/11/05 05:53:09;;;;;;;45.28;20.30;;;;;;;10.28;78.95;100364.53;5052946;28;20368;-81
2021/11/05 05:55:35;;;;;;;44.38;19.17;;;;;;;10.38;79.08;100377.59;5072418;28;20715;-81
2021/11/05 05:58:01;;;;;;;46.25;19.63;;;;;;;10.41;79.10;100376.75;5053323;28;20134;-82
2021/11/05 06:00:29;;;;;;;47.60;20.88;;;;;;;10.34;79.32;100356.75;5065196;28;20794;-83
2021/11/05 06:02:55;;;;;;;43.90;21.08;;;;;;;10.35;78.52;100353.28;5070886;28;20751;-82
2021/11/05 06:05:21;;;;;;;40.78;19.30;;;;;;;10.41;78.52;100350.72;5070205;28;20042;-81
2021/11/05 06:07:46;;;;;;;43.92;18.27;;;;;;;10.43;78.82;100351.59;5047464;28;20044;-78
2021/11/05 06:10:12;;;;;;;44.70;19.08;;;;;;;10.43;78.58;100332.50;5040051;28;20379;-79
2021/11/05 06:12:38;;;;;;;40.53;19.88;;;;;;;10.32;78.18;100314.25;5033735;28;20445;-79
2021/11/05 06:15:05;;;;;;;43.83;20.42;;;;;;;10.40;78.49;100339.44;5081120;28;20037;-77
2021/11/05 06:17:31;;;;;;;49.63;23.85;;;;;;;10.55;78.49;100361.13;5066765;28;20048;-79
2021/11/05 06:20:01;;;;;;;42.35;20.88;;;;;;;10.18;78.54;100289.13;5020598;28;20048;-78
2021/11/05 06:22:27;;;;;;;39.50;18.60;;;;;;;10.43;77.39;100338.59;5034907;28;20530;-83
2021/11/05 06:24:53;;;;;;;42.50;19.92;;;;;;;10.52;77.97;100354.19;5037061;28;20051;-80
2021/11/05 06:27:19;;;;;;;47.83;21.60;;;;;;;10.56;77.60;100355.06;5052206;28;20047;-80
2021/11/05 06:29:45;;;;;;;58.70;27.48;;;;;;;10.64;77.59;100373.28;5051227;28;20067;-78
2021/11/05 06:32:10;;;;;;;41.05;19.88;;;;;;;10.23;77.67;100326.41;5020264;28;20052;-79
2021/11/05 06:34:37;;;;;;;44.20;20.88;;;;;;;10.39;77.40;100353.31;5049792;28;20131;-79
2021/11/05 06:37:03;;;;;;;36.15;17.83;;;;;;;10.65;77.45;100380.22;5036810;28;20120;-82
2021/11/05 06:39:29;;;;;;;41.72;19.42;;;;;;;10.70;77.47;100391.50;5051351;28;20045;-77
2021/11/05 06:41:58;;;;;;;40.15;19.10;;;;;;;10.69;77.38;100392.38;5037088;28;20041;-78
2021/11/05 06:44:24;;;;;;;40.72;19.85;;;;;;;10.49;76.80;100343.78;5036434;28;20061;-79
2021/11/05 06:46:53;;;;;;;47.35;21.60;;;;;;;10.38;77.55;100315.16;5035322;28;20037;-79
2021/11/05 06:49:19;;;;;;;50.05;21.38;;;;;;;10.57;76.89;100329.91;5032378;28;20108;-76
2021/11/05 06:51:45;;;;;;;38.05;19.77;;;;;;;10.80;76.97;100359.38;5033486;28;20118;-77
2021/11/05 06:54:11;;;;;;;44.17;20.80;;;;;;;10.79;76.89;100341.19;5021570;28;20041;-78
2021/11/05 06:56:36;;;;;;;61.67;29.50;;;;;;;10.91;76.96;100356.78;5054025;28;20071;-78
2021/11/05 06:59:02;;;;;;;48.17;22.45;;;;;;;10.82;76.51;100335.94;5012077;28;20052;-77
2021/11/05 07:01:28;;;;;;;42.83;21.67;;;;;;;10.84;76.23;100353.31;5039539;28;20132;-77
2021/11/05 07:03:54;;;;;;;45.85;20.45;;;;;;;10.79;76.71;100336.81;5054913;28;20063;-77
2021/11/05 07:06:22;;;;;;;44.72;20.80;;;;;;;10.84;76.56;100340.28;5027507;28;20032;-78
2021/11/05 07:08:48;;;;;;;46.63;22.90;;;;;;;10.85;76.04;100355.06;5047046;28;20103;-77
2021/11/05 07:11:14;;;;;;;38.97;18.70;;;;;;;10.81;75.88;100350.72;5068301;28;20028;-77
2021/11/05 07:13:40;;;;;;;39.83;18.80;;;;;;;10.77;75.85;100350.72;5067634;28;20025;-78
2021/11/05 07:16:09;;;;;;;39.92;19.27;;;;;;;10.78;75.84;100342.91;5050818;28;20041;-77
2021/11/05 07:18:37;;;;;;;43.80;20.20;;;;;;;10.64;75.79;100306.47;5070281;28;20306;-78
2021/11/05 07:21:04;;;;;;;39.55;19.27;;;;;;;10.90;76.35;100338.56;5035576;28;20053;-79
2021/11/05 07:23:33;;;;;;;45.10;20.75;;;;;;;10.98;75.79;100335.06;5029967;28;20036;-77
2021/11/05 07:26:03;;;;;;;53.55;25.88;;;;;;;11.00;75.72;100329.84;5052063;28;20043;-77
2021/11/05 07:28:29;;;;;;;58.70;31.05;;;;;;;10.91;75.25;100320.31;5022095;28;20050;-77
2021/11/05 07:30:56;;;;;;;40.58;19.02;;;;;;;10.99;74.95;100338.53;5035134;28;20582;-77
2021/11/05 07:33:22;;;;;;;41.92;21.13;;;;;;;10.98;75.46;100335.06;5046259;28;20062;-77
2021/11/05 07:35:48;;;;;;;50.08;22.55;;;;;;;10.87;75.16;100297.75;5029357;28;20254;-76
2021/11/05 07:38:14;;;;;;;52.72;24.17;;;;;;;10.91;75.11;100316.88;5036445;28;20032;-78
2021/11/05 07:40:40;;;;;;;43.55;21.23;;;;;;;10.92;75.46;100300.38;5015332;28;20048;-77
2021/11/05 07:43:05;;;;;;;46.90;22.52;;;;;;;10.99;75.03;100289.06;5000258;28;20037;-77
2021/11/05 07:45:31;;;;;;;45.25;21.77;;;;;;;10.90;74.76;100276.91;5047963;28;20047;-76
2021/11/05 07:47:58;;;;;;;42.50;20.52;;;;;;;11.06;74.22;100297.72;5050352;28;20071;-74
2021/11/05 07:50:26;;;;;;;38.70;17.77;;;;;;;11.07;74.85;100294.22;5050097;28;20037;-79
2021/11/05 07:52:53;;;;;;;41.75;21.15;;;;;;;11.07;74.11;100295.13;5018463;28;20051;-74
2021/11/05 07:55:19;;;;;;;34.60;18.25;;;;;;;11.08;74.50;100289.03;5041155;28;20042;-76
2021/11/05 07:57:48;;;;;;;38.28;17.23;;;;;;;11.12;74.49;100298.56;5067427;28;20037;-77
2021/11/05 08:00:16;;;;;;;36.15;16.77;;;;;;;11.01;73.89;100274.28;5022343;28;20065;-77
2021/11/05 08:02:42;;;;;;;45.55;21.38;;;;;;;11.13;74.20;100289.00;5006771;28;20036;-77
2021/11/05 08:05:09;;;;;;;44.95;22.13;;;;;;;11.03;73.77;100266.50;5004309;28;20054;-78
2021/11/05 08:07:35;;;;;;;44.13;22.13;;;;;;;10.98;74.02;100254.34;5034079;28;20127;-77
2021/11/05 08:10:05;;;;;;;36.63;19.13;;;;;;;11.12;73.90;100290.75;5037908;28;20521;-77
2021/11/05 08:12:32;;;;;;;51.17;24.90;;;;;;;11.14;74.03;100281.19;4998950;28;20049;-79
2021/11/05 08:15:01;;;;;;;33.75;17.17;;;;;;;11.00;73.21;100260.41;5043370;28;20063;-77
2021/11/05 08:17:28;;;;;;;37.72;18.00;;;;;;;11.15;73.61;100282.91;5033205;28;20041;-78
2021/11/05 08:19:55;;;;;;;41.60;20.83;;;;;;;11.00;73.44;100244.78;5035748;28;20045;-77
2021/11/05 08:22:21;;;;;;;33.33;17.13;;;;;;;10.92;73.32;100258.72;5027955;28;20128;-78
2021/11/05 08:24:47;;;;;;;39.33;18.65;;;;;;;11.06;73.38;100285.56;5060793;28;20045;-76
2021/11/05 08:27:14;;;;;;;32.97;16.15;;;;;;;11.05;73.43;100257.78;4998053;28;20037;-79
2021/11/05 08:29:42;;;;;;;35.08;17.95;;;;;;;11.01;73.18;100258.66;5044764;28;20051;-78
2021/11/05 08:32:09;;;;;;;32.53;16.70;;;;;;;11.11;73.26;100251.69;5018514;28;20055;-76
2021/11/05 08:34:35;;;;;;;32.83;17.15;;;;;;;11.14;73.04;100260.34;5029368;28;20052;-77
2021/11/05 08:37:01;;;;;;;33.08;17.38;;;;;;;11.18;73.37;100236.88;5015932;28;20041;-78
2021/11/05 08:39:26;;;;;;;31.35;16.00;;;;;;;11.19;72.75;100238.63;4998521;28;20519;-78
2021/11/05 08:41:52;;;;;;;30.92;16.58;;;;;;;11.09;73.04;100228.25;5029106;28;20037;-78
2021/11/05 08:44:18;;;;;;;36.08;17.10;;;;;;;11.14;72.94;100226.47;5049502;28;20053;-80
2021/11/05 08:46:44;;;;;;;32.92;15.20;;;;;;;11.20;72.42;100251.66;5037628;28;20036;-78
2021/11/05 08:49:14;;;;;;;29.35;16.10;;;;;;;11.20;73.19;100235.16;5056125;28;20088;-81
2021/11/05 08:51:43;;;;;;;35.53;16.90;;;;;;;11.19;72.59;100228.22;5023068;28;20033;-79
2021/11/05 08:54:08;;;;;;;30.75;15.55;;;;;;;11.21;72.81;100229.94;5033699;28;20492;-75
2021/11/05 08:56:34;;;;;;;33.55;16.55;;;;;;;11.26;72.43;100241.19;5010259;28;20052;-76
2021/11/05 08:59:02;;;;;;;30.67;15.35;;;;;;;11.14;72.23;100212.59;5036005;28;20300;-78
2021/11/05 09:01:28;;;;;;;28.83;15.65;;;;;;;11.24;72.63;100224.72;5052801;28;20523;-79
2021/11/05 09:03:53;;;;;;;27.75;13.80;;;;;;;11.20;72.22;100219.53;5035598;28;20056;-77
2021/11/05 09:06:19;;;;;;;29.02;14.68;;;;;;;11.14;71.81;100218.66;5051818;28;20037;-79
2021/11/05 09:08:47;;;;;;;27.33;15.05;;;;;;;11.21;72.23;100229.94;5037087;28;20042;-82
2021/11/05 09:11:12;;;;;;;32.25;17.38;;;;;;;11.25;72.61;100223.84;5036561;28;20087;-78
2021/11/05 09:13:38;;;;;;;27.30;14.95;;;;;;;11.28;72.21;100225.56;5030784;28;20041;-81
2021/11/05 09:16:04;;;;;;;28.77;14.23;;;;;;;11.19;71.83;100221.28;5055034;28;20037;-81
2021/11/05 09:18:31;;;;;;;28.25;14.90;;;;;;;11.26;72.28;100233.38;5050941;28;20098;-84
2021/11/05 09:20:58;;;;;;;26.08;14.75;;;;;;;11.21;71.88;100213.44;5036348;28;20044;-78
2021/11/05 09:23:24;;;;;;;24.23;12.98;;;;;;;11.18;71.97;100203.03;5033699;28;20116;-79
2021/11/05 09:25:51;;;;;;;25.55;13.80;;;;;;;11.16;71.74;100197.84;5035197;28;20044;-76
2021/11/05 09:28:17;;;;;;;25.40;13.77;;;;;;;10.82;71.90;100132.88;5038132;28;20045;-77
2021/11/05 09:30:43;;;;;;;22.92;13.00;;;;;;;11.28;71.72;100216.00;5053129;28;20052;-76
2021/11/05 09:33:09;;;;;;;25.40;14.13;;;;;;;11.19;71.56;100186.53;5023359;28;20053;-80
2021/11/05 09:35:36;;;;;;;25.25;14.02;;;;;;;11.33;71.57;100202.97;5034025;28;21021;-79
2021/11/05 09:38:04;;;;;;;23.80;13.23;;;;;;;11.34;71.52;100207.31;5055036;28;20080;-79
2021/11/05 09:40:30;;;;;;;28.90;13.90;;;;;;;11.30;71.60;100195.16;5064454;28;20020;-77
2021/11/05 09:43:32;;;;;;;25.77;13.23;;;;;;;11.14;71.51;100160.50;5043871;28;20040;-78
2021/11/05 09:46:17;;;;;;;33.60;15.75;;;;;;;10.89;71.25;100116.38;5035813;28;20037;-78
2021/11/05 09:48:43;;;;;;;31.25;15.00;;;;;;;11.48;71.23;100191.56;5023253;28;20052;-79
2021/11/05 09:51:10;;;;;;;22.50;12.75;;;;;;;11.28;70.73;100150.03;5034147;28;20036;-77
2021/11/05 09:53:39;;;;;;;25.35;13.82;;;;;;;11.36;70.95;100171.69;5021929;28;20048;-80
2021/11/05 09:56:07;;;;;;;27.08;13.60;;;;;;;11.40;71.49;100170.78;5034862;28;20510;-76
2021/11/05 09:58:42;;;;;;;;;;;;;;;11.53;70.89;100176.78;5021564;28;20060;-80
2021/11/05 10:01:09;;;;;;;28.70;14.68;;;;;;;11.35;71.05;100151.72;5053494;28;20019;-81
2021/11/05 10:03:41;;;;;;;30.92;15.38;;;;;;;11.55;70.74;100179.38;5025776;28;20125;-80
2021/11/05 10:06:17;;;;;;;29.95;14.80;;;;;;;10.98;71.07;100081.59;5022843;28;20044;-78
2021/11/05 10:08:52;;;;;;;45.25;22.65;;;;;;;10.46;70.96;99981.28;5021811;28;20045;-77
2021/11/05 10:11:33;;;;;;;28.83;14.05;;;;;;;11.53;71.18;100161.13;5039632;28;20051;-83
2021/11/05 10:14:10;;;;;;;25.25;14.52;;;;;;;10.52;71.23;99973.44;5054507;28;20147;-81
2021/11/05 10:17:02;;;;;;;27.42;14.00;;;;;;;10.81;70.81;100027.06;5036388;28;20041;-77
2021/11/05 10:19:50;;;;;;;28.55;14.05;;;;;;;11.58;71.00;100140.28;5054538;28;20079;-79
2021/11/05 10:22:52;;;;;;;27.77;14.38;;;;;;;10.76;71.08;99987.19;5027770;28;20056;-80
2021/11/05 10:25:37;;;;;;;30.75;15.55;;;;;;;11.20;71.16;100045.00;5034005;28;20103;-79
2021/11/05 10:28:25;;;;;;;29.52;15.50;;;;;;;11.69;70.89;100122.78;5034651;28;20044;-79
2021/11/05 10:31:09;;;;;;;32.13;16.00;;;;;;;11.50;70.87;100080.38;5058332;28;20065;-79
2021/11/05 10:34:05;;;;;;;31.27;15.60;;;;;;;10.82;71.06;99966.28;5037961;28;20500;-80
2021/11/05 10:37:02;;;;;;;33.22;15.80;;;;;;;11.77;70.86;100109.69;5038107;28;20372;-79
2021/11/05 10:43:48;;;;;;;32.00;16.15;;;;;;;11.34;70.63;100053.59;5030438;28;20056;-81
2021/11/05 10:47:26;;;;;;;32.78;15.82;;;;;;;11.63;70.44;100086.34;5031160;28;20099;-78
2021/11/05 10:50:13;;;;;;;29.60;15.43;;;;;;;11.42;71.05;100067.41;5019696;28;20045;-83
2021/11/05 10:53:15;;;;;;;30.98;16.20;;;;;;;11.63;71.08;100085.50;5020276;28;20135;-78
2021/11/05 10:56:24;;;;;;;33.03;16.40;;;;;;;11.65;70.88;100081.97;5005360;28;20033;-82
2021/11/05 10:59:13;;;;;;;35.92;16.33;;;;;;;11.68;71.53;100070.69;4970038;28;20057;-84
2021/11/05 11:01:48;;;;;;;34.17;17.25;;;;;;;11.73;71.31;100066.28;4964146;28;20042;-80
2021/11/05 11:04:14;;;;;;;37.83;17.50;;;;;;;11.38;71.43;100000.56;5018148;28;20049;-79
2021/11/05 11:06:57;;;;;;;33.47;16.52;;;;;;;11.77;71.17;100054.09;5035913;28;20038;-81
2021/11/05 11:10:00;;;;;;;32.22;15.90;;;;;;;10.90;71.46;99920.25;5018361;28;20048;-81
2021/11/05 11:12:56;;;;;;;36.05;16.63;;;;;;;11.26;70.98;99961.59;5025598;28;20036;-78
2021/11/05 11:16:36;;;;;;;36.25;17.55;;;;;;;11.81;71.33;100072.28;5040476;28;20412;-77
2021/11/05 11:23:14;;;;;;;36.20;17.08;;;;;;;11.44;71.50;99997.06;5032089;28;20053;-80
2021/11/05 11:25:43;;;;;;;34.20;17.60;;;;;;;11.19;71.29;99939.09;5049636;28;20056;-83
2021/11/05 11:28:13;;;;;;;38.63;18.50;;;;;;;11.81;71.34;100058.38;5012897;23;20045;-80